Time;durP1;ratioP1;P1;durP2;ratioP2;P2;SDS_P1;SDS_P2;PMS_P1;PMS_P2;Temp;Humidity;BMP_temperature;BMP_pressure;BME280_temperature;BME280_humidity;BME280_pressure;Samples;Min_cycle;Max_cycle;Signal;HPM_P1;HPM_P2
2023/04/04 00:01:03;;;;;;;4.30;2.40;;;7.80;34.20;;;;;;5015188;28;20173;-51
2023/04/04 00:03:29;;;;;;;5.90;2.22;;;7.80;34.30;;;;;;5014843;28;20162;-52
2023/04/04 00:05:55;;;;;;;4.27;2.50;;;7.80;34.30;;;;;;5015041;28;20191;-52
2023/04/04 00:08:21;;;;;;;11.60;3.37;;;7.70;34.20;;;;;;5015002;28;20430;-52
2023/04/04 00:10:47;;;;;;;7.03;2.55;;;7.70;34.30;;;;;;5014986;28;20437;-52
2023/04/04 00:13:12;;;;;;;7.60;2.77;;;7.70;34.30;;;;;;5014722;28;20209;-52
2023/04/04 00:15:38;;;;;;;4.80;2.90;;;7.70;34.50;;;;;;5014852;28;20182;-51
2023/04/04 00:18:04;;;;;;;3.80;2.10;;;7.70;34.50;;;;;;5014638;28;20197;-51
2023/04/04 00:20:30;;;;;;;3.40;2.40;;;7.70;34.60;;;;;;5015049;28;20436;-52
2023/04/04 00:22:56;;;;;;;6.53;2.87;;;7.60;34.50;;;;;;5014597;28;20578;-51
2023/04/04 00:25:22;;;;;;;5.22;2.53;;;7.70;34.60;;;;;;5014739;28;20410;-52
2023/04/04 00:27:48;;;;;;;4.03;2.67;;;7.70;34.60;;;;;;5014453;28;20589;-52
2023/04/04 00:30:14;;;;;;;8.43;2.40;;;7.70;34.50;;;;;;5014703;28;20171;-51
2023/04/04 00:32:40;;;;;;;4.25;2.10;;;7.70;34.70;;;;;;5014326;28;20181;-52
2023/04/04 00:35:06;;;;;;;3.20;2.43;;;7.60;34.70;;;;;;5014579;28;20178;-51
2023/04/04 00:37:32;;;;;;;3.38;1.98;;;7.60;34.60;;;;;;5014500;28;20504;-51
2023/04/04 00:39:58;;;;;;;2.47;2.25;;;7.60;34.70;;;;;;5014418;28;20254;-52
2023/04/04 00:42:24;;;;;;;10.57;3.30;;;7.60;34.80;;;;;;5014188;28;20305;-51
2023/04/04 00:44:53;;;;;;;5.17;2.67;;;7.60;34.80;;;;;;5014264;28;20408;-52
2023/04/04 00:47:23;;;;;;;4.30;2.95;;;7.50;34.80;;;;;;5014119;28;20461;-51
2023/04/04 00:49:50;;;;;;;5.13;2.55;;;7.50;35.00;;;;;;5014296;28;20178;-51
2023/04/04 00:52:16;;;;;;;3.53;2.72;;;7.50;34.90;;;;;;5013820;28;20201;-51
2023/04/04 00:54:42;;;;;;;4.73;2.50;;;7.50;35.00;;;;;;5014250;28;20542;-52
2023/04/04 00:57:08;;;;;;;3.67;2.50;;;7.50;35.00;;;;;;5013900;28;20457;-52
2023/04/04 00:59:35;;;;;;;6.45;3.05;;;7.50;35.00;;;;;;5014007;28;20175;-51
2023/04/04 01:02:00;;;;;;;3.30;2.35;;;7.50;35.00;;;;;;5013763;28;20171;-51
2023/04/04 01:04:30;;;;;;;3.57;2.53;;;7.50;35.10;;;;;;5013983;28;20178;-51
2023/04/04 01:06:56;;;;;;;4.40;2.63;;;7.50;35.10;;;;;;5013774;28;20577;-52
2023/04/04 01:09:22;;;;;;;3.87;2.73;;;7.50;35.20;;;;;;5013871;28;20189;-51
2023/04/04 01:11:48;;;;;;;3.28;2.10;;;7.50;35.20;;;;;;5013627;28;20401;-52
2023/04/04 01:14:14;;;;;;;3.85;2.83;;;7.50;35.80;;;;;;5013704;28;20178;-51
2023/04/04 01:16:40;;;;;;;7.50;2.50;;;7.50;35.10;;;;;;5013596;28;20257;-52
2023/04/04 01:19:13;;;;;;;3.33;1.73;;;7.50;35.20;;;;;;5013684;28;20202;-51
2023/04/04 01:21:39;;;;;;;6.95;1.98;;;7.40;35.10;;;;;;5013600;28;20197;-51
2023/04/04 01:24:07;;;;;;;4.15;2.35;;;7.40;35.10;;;;;;5013455;28;20169;-51
2023/04/04 01:26:33;;;;;;;7.82;3.22;;;7.40;35.20;;;;;;5013346;28;20294;-51
2023/04/04 01:28:59;;;;;;;4.17;2.37;;;7.40;35.30;;;;;;5013375;28;20606;-51
2023/04/04 01:31:35;;;;;;;7.00;3.00;;;7.40;35.30;;;;;;5013445;28;20174;-51
2023/04/04 01:34:15;;;;;;;4.40;2.28;;;7.40;35.30;;;;;;5013530;28;20166;-52
2023/04/04 01:37:04;;;;;;;4.25;2.47;;;7.30;35.40;;;;;;5013398;28;20195;-52
2023/04/04 01:39:46;;;;;;;5.18;2.78;;;7.40;35.50;;;;;;5013310;28;20171;-52
2023/04/04 01:42:14;;;;;;;4.43;3.13;;;7.40;35.50;;;;;;5013367;28;20162;-51
2023/04/04 01:44:40;;;;;;;7.15;2.50;;;6.20;35.00;;;;;;5013351;28;20269;-51
2023/04/04 01:47:07;;;;;;;4.43;3.00;;;7.30;35.50;;;;;;5013071;28;20697;-51
2023/04/04 01:49:33;;;;;;;3.85;2.00;;;7.30;35.50;;;;;;5013070;28;20178;-52
2023/04/04 01:52:00;;;;;;;4.93;2.47;;;7.30;35.60;;;;;;5013067;28;20558;-52
2023/04/04 01:54:27;;;;;;;5.72;2.90;;;7.30;35.50;;;;;;5013112;28;20410;-52
2023/04/04 01:56:53;;;;;;;7.28;2.92;;;7.30;35.60;;;;;;5012699;28;20694;-51
2023/04/04 01:59:19;;;;;;;7.10;2.42;;;7.30;35.80;;;;;;5012940;28;20650;-52
2023/04/04 02:01:44;;;;;;;3.50;2.53;;;7.30;35.60;;;;;;5012812;28;20198;-52
2023/04/04 02:04:11;;;;;;;2.83;2.63;;;7.20;35.70;;;;;;5012105;28;20397;-52
2023/04/04 02:06:39;;;;;;;7.90;3.35;;;7.20;35.60;;;;;;5012721;28;20202;-51
2023/04/04 02:09:05;;;;;;;5.05;2.15;;;7.20;35.60;;;;;;5013089;28;20178;-52
2023/04/04 02:11:31;;;;;;;4.33;2.53;;;7.20;35.70;;;;;;5012947;28;20685;-51
2023/04/04 02:13:57;;;;;;;2.38;1.75;;;7.20;35.70;;;;;;5012563;28;20417;-51
2023/04/04 02:16:23;;;;;;;4.20;2.60;;;7.20;35.80;;;;;;5012640;28;20191;-51
2023/04/04 02:18:49;;;;;;;7.23;2.63;;;7.20;35.70;;;;;;5012564;28;20414;-51
2023/04/04 02:21:14;;;;;;;6.13;2.60;;;7.20;35.70;;;;;;5012946;28;20197;-51
2023/04/04 02:23:40;;;;;;;4.80;2.07;;;7.20;35.80;;;;;;5012403;28;20178;-51
2023/04/04 02:26:06;;;;;;;6.30;2.90;;;7.10;35.80;;;;;;5012355;28;20522;-51
2023/04/04 02:28:32;;;;;;;4.63;3.10;;;7.10;35.70;;;;;;5012620;28;20394;-52
2023/04/04 02:31:01;;;;;;;4.63;2.87;;;7.10;35.70;;;;;;5012516;28;20337;-51
2023/04/04 02:33:27;;;;;;;4.78;2.83;;;7.10;35.80;;;;;;5012219;28;20167;-52
2023/04/04 02:35:59;;;;;;;8.10;3.42;;;7.10;35.90;;;;;;5012411;28;20194;-52
2023/04/04 02:38:25;;;;;;;5.72;3.15;;;7.00;35.70;;;;;;5012332;28;20205;-51
2023/04/04 02:40:51;;;;;;;3.70;2.60;;;7.00;35.80;;;;;;5012339;28;20170;-51
2023/04/04 02:43:17;;;;;;;9.18;4.32;;;7.00;35.70;;;;;;5012201;28;20170;-51
2023/04/04 02:45:43;;;;;;;4.00;2.83;;;7.00;35.70;;;;;;5012359;28;20198;-52
2023/04/04 02:48:09;;;;;;;4.40;2.23;;;6.90;35.70;;;;;;5012280;28;20421;-51
2023/04/04 02:50:35;;;;;;;4.50;2.90;;;6.80;35.80;;;;;;5012308;28;20646;-52
2023/04/04 02:53:02;;;;;;;4.97;3.10;;;6.80;35.70;;;;;;5012090;28;20271;-51
2023/04/04 02:55:28;;;;;;;4.40;2.75;;;6.80;35.70;;;;;;5012163;28;20220;-51
2023/04/04 02:57:53;;;;;;;3.97;2.40;;;6.70;35.90;;;;;;5012172;28;20198;-51
2023/04/04 03:00:19;;;;;;;3.93;2.37;;;6.70;35.80;;;;;;5012238;28;20409;-52
2023/04/04 03:02:51;;;;;;;4.80;2.30;;;6.60;35.80;;;;;;5011948;28;20216;-52
2023/04/04 03:05:17;;;;;;;5.53;2.63;;;6.60;35.70;;;;;;5012429;28;20401;-51
2023/04/04 03:07:43;;;;;;;3.83;2.07;;;6.60;35.70;;;;;;5012001;28;20258;-51
2023/04/04 03:10:08;;;;;;;12.20;3.00;;;6.60;36.50;;;;;;5012130;28;20182;-51
2023/04/04 03:12:34;;;;;;;6.13;2.80;;;6.50;35.80;;;;;;5012164;28;20226;-51
2023/04/04 03:15:00;;;;;;;4.40;2.23;;;6.50;36.00;;;;;;5012268;28;20413;-51
2023/04/04 03:17:26;;;;;;;4.30;2.65;;;6.40;36.00;;;;;;5015731;28;20756;-51
2023/04/04 03:19:52;;;;;;;6.40;2.70;;;6.40;36.10;;;;;;5015988;28;20183;-51
2023/04/04 03:22:17;;;;;;;5.77;3.20;;;6.40;36.10;;;;;;5015895;28;20182;-51
2023/04/04 03:24:43;;;;;;;5.30;2.33;;;6.40;36.20;;;;;;5015792;28;20174;-51
2023/04/04 03:27:10;;;;;;;4.17;3.27;;;6.40;36.20;;;;;;5015602;28;20214;-51
2023/04/04 03:29:35;;;;;;;4.90;2.65;;;6.40;36.10;;;;;;5015706;28;20194;-52
2023/04/04 03:32:01;;;;;;;3.53;2.50;;;6.40;36.10;;;;;;5015432;28;20178;-52
2023/04/04 03:34:27;;;;;;;3.05;2.17;;;6.50;36.10;;;;;;5015849;28;20175;-51
2023/04/04 03:36:53;;;;;;;5.73;2.83;;;6.50;36.30;;;;;;5015695;28;20248;-51
2023/04/04 03:39:19;;;;;;;5.40;2.47;;;6.50;36.40;;;;;;5015760;28;20309;-51
2023/04/04 03:41:45;;;;;;;5.87;3.03;;;6.50;36.60;;;;;;5015674;28;20488;-51
2023/04/04 03:44:10;;;;;;;6.43;2.53;;;6.50;36.60;;;;;;5015335;28;20193;-51
2023/04/04 03:46:36;;;;;;;6.50;3.27;;;6.50;36.50;;;;;;5015600;28;20219;-51
2023/04/04 03:49:02;;;;;;;3.10;2.40;;;6.50;36.60;;;;;;5015392;28;20190;-51
2023/04/04 03:51:28;;;;;;;5.07;2.85;;;6.50;36.50;;;;;;5015398;28;20178;-51
2023/04/04 03:53:53;;;;;;;4.53;2.77;;;6.60;36.60;;;;;;5015102;28;20179;-51
2023/04/04 03:56:19;;;;;;;5.47;2.37;;;6.60;36.60;;;;;;5015059;28;20195;-52
2023/04/04 03:58:45;;;;;;;5.40;3.17;;;6.60;36.60;;;;;;5015133;28;20177;-51
2023/04/04 04:01:11;;;;;;;5.13;3.13;;;6.60;36.70;;;;;;5015373;28;20183;-51
2023/04/04 04:03:37;;;;;;;3.70;2.80;;;6.60;36.80;;;;;;5015114;28;20213;-52
2023/04/04 04:06:02;;;;;;;4.30;3.00;;;6.70;36.80;;;;;;5015074;28;20664;-51
2023/04/04 04:08:28;;;;;;;6.23;4.13;;;6.70;36.70;;;;;;5014965;28;20171;-51
2023/04/04 04:10:54;;;;;;;5.27;2.83;;;6.70;36.80;;;;;;5015003;28;20417;-51
2023/04/04 04:13:21;;;;;;;8.50;3.23;;;6.70;36.70;;;;;;5014906;28;20217;-51
2023/04/04 04:15:46;;;;;;;4.97;2.55;;;6.70;36.70;;;;;;5014871;28;20433;-51
2023/04/04 04:18:12;;;;;;;3.70;2.97;;;6.70;36.80;;;;;;5015014;28;20246;-51
2023/04/04 04:20:38;;;;;;;4.00;2.53;;;6.70;36.80;;;;;;5015051;28;20221;-51
2023/04/04 04:23:03;;;;;;;4.47;2.47;;;6.70;36.70;;;;;;5014528;28;20166;-51
2023/04/04 04:25:29;;;;;;;9.17;2.97;;;6.70;37.30;;;;;;5014608;28;20852;-53
2023/04/04 04:27:56;;;;;;;4.63;2.80;;;6.70;37.00;;;;;;5021576;23;20177;-52
2023/04/04 04:30:22;;;;;;;9.60;2.70;;;6.70;36.70;;;;;;5005023;28;20216;-51
2023/04/04 04:32:51;;;;;;;8.48;2.97;;;6.70;36.70;;;;;;4994525;28;20231;-51
2023/04/04 04:35:17;;;;;;;3.60;2.30;;;6.70;36.70;;;;;;4994929;28;20203;-51
2023/04/04 04:37:43;;;;;;;9.77;2.80;;;6.70;36.80;;;;;;4994791;28;20246;-52
2023/04/04 04:40:09;;;;;;;10.73;3.10;;;6.70;36.70;;;;;;4994769;28;20218;-52
2023/04/04 04:42:35;;;;;;;7.82;3.20;;;6.70;36.70;;;;;;4994480;28;20175;-51
2023/04/04 04:45:00;;;;;;;5.20;3.07;;;6.70;36.60;;;;;;4994766;28;20217;-51
2023/04/04 04:47:28;;;;;;;3.20;2.10;;;6.70;36.60;;;;;;4994868;28;20215;-51
2023/04/04 04:49:54;;;;;;;5.90;2.70;;;6.60;36.50;;;;;;4994566;28;20516;-51
2023/04/04 04:52:20;;;;;;;4.87;3.43;;;6.60;36.50;;;;;;4994610;28;20190;-51
2023/04/04 04:54:47;;;;;;;4.40;3.20;;;6.60;36.60;;;;;;4994584;28;20195;-51
2023/04/04 04:57:12;;;;;;;5.18;2.25;;;6.60;36.50;;;;;;4994557;28;20442;-51
2023/04/04 04:59:40;;;;;;;5.80;2.70;;;6.60;36.50;;;;;;4994438;28;20191;-51
2023/04/04 05:02:05;;;;;;;11.02;3.45;;;6.60;36.50;;;;;;4994238;28;20167;-51
2023/04/04 05:04:31;;;;;;;4.53;2.70;;;6.60;36.50;;;;;;4994370;28;20647;-51
2023/04/04 05:06:57;;;;;;;6.57;3.87;;;6.60;36.40;;;;;;4994438;28;20177;-51
2023/04/04 05:09:23;;;;;;;9.15;3.35;;;6.60;36.40;;;;;;4994103;28;20587;-51
2023/04/04 05:11:49;;;;;;;7.63;3.23;;;6.60;36.50;;;;;;4993987;28;20179;-51
2023/04/04 05:14:15;;;;;;;6.13;2.93;;;6.60;36.50;;;;;;4994145;28;20182;-53
2023/04/04 05:16:41;;;;;;;10.70;3.20;;;6.60;36.80;;;;;;4994030;28;20454;-51
2023/04/04 05:19:07;;;;;;;6.47;2.63;;;6.60;36.60;;;;;;4994160;28;20279;-51
2023/04/04 05:21:33;;;;;;;4.80;3.20;;;6.60;36.60;;;;;;4994029;28;20199;-52
2023/04/04 05:23:58;;;;;;;3.70;3.13;;;6.50;36.60;;;;;;4993878;28;20250;-51
2023/04/04 05:26:24;;;;;;;4.10;2.67;;;6.60;36.60;;;;;;4994099;28;20178;-51
2023/04/04 05:28:50;;;;;;;3.33;2.43;;;6.60;36.50;;;;;;4993730;28;20687;-51
2023/04/04 05:31:16;;;;;;;14.77;4.33;;;6.60;36.60;;;;;;4993886;28;20411;-51
2023/04/04 05:33:41;;;;;;;6.50;2.70;;;6.70;36.60;;;;;;4993827;28;20206;-51
2023/04/04 05:36:07;;;;;;;6.20;3.10;;;6.70;36.40;;;;;;4993715;28;20180;-51
2023/04/04 05:38:33;;;;;;;6.50;2.90;;;6.70;36.30;;;;;;4993576;28;20256;-51
2023/04/04 05:40:59;;;;;;;4.43;2.53;;;6.70;36.40;;;;;;4993655;28;20455;-51
2023/04/04 05:43:24;;;;;;;5.70;2.93;;;6.70;36.40;;;;;;4993452;28;20173;-51
2023/04/04 05:45:50;;;;;;;6.50;2.67;;;6.70;36.30;;;;;;4993540;28;20190;-51
2023/04/04 05:48:16;;;;;;;5.43;3.23;;;6.80;36.40;;;;;;4993472;28;20202;-51
2023/04/04 05:50:44;;;;;;;4.53;2.60;;;6.80;36.30;;;;;;4993317;28;20171;-51
2023/04/04 05:53:10;;;;;;;4.25;2.85;;;6.90;36.30;;;;;;4993150;28;20233;-51
2023/04/04 05:55:36;;;;;;;7.53;2.33;;;6.90;36.10;;;;;;4993275;28;20183;-51
2023/04/04 05:58:02;;;;;;;6.80;3.23;;;7.00;36.20;;;;;;4993161;28;20277;-51
2023/04/04 06:00:28;;;;;;;5.10;2.83;;;7.00;36.10;;;;;;4993278;28;20702;-51
2023/04/04 06:02:57;;;;;;;6.25;2.90;;;7.10;36.10;;;;;;4993058;28;20441;-51
2023/04/04 06:05:23;;;;;;;5.28;2.47;;;7.20;35.90;;;;;;4993180;28;20254;-51
2023/04/04 06:07:49;;;;;;;8.00;2.90;;;7.30;35.70;;;;;;4993094;28;20167;-51
2023/04/04 06:10:15;;;;;;;5.20;2.63;;;7.30;35.70;;;;;;4993123;28;20524;-52
2023/04/04 06:12:41;;;;;;;4.25;3.40;;;7.30;35.70;;;;;;4992919;28;20594;-52
2023/04/04 06:15:07;;;;;;;5.07;2.30;;;7.40;35.70;;;;;;4993096;28;20178;-51
2023/04/04 06:17:33;;;;;;;5.40;3.13;;;7.60;35.50;;;;;;4992951;28;20194;-52
2023/04/04 06:19:58;;;;;;;4.00;2.43;;;7.60;35.50;;;;;;4992920;28;20188;-51
2023/04/04 06:22:24;;;;;;;3.60;2.60;;;7.80;35.30;;;;;;4992646;28;20422;-51
2023/04/04 06:24:50;;;;;;;5.03;3.07;;;7.90;35.00;;;;;;4992879;28;20175;-51
2023/04/04 06:27:16;;;;;;;5.70;3.13;;;7.90;34.70;;;;;;4993130;28;20175;-51
2023/04/04 06:29:42;;;;;;;5.80;3.70;;;8.00;34.60;;;;;;4992695;28;20449;-51
2023/04/04 06:32:08;;;;;;;12.98;4.05;;;8.00;34.30;;;;;;4992709;28;20181;-51
2023/04/04 06:34:34;;;;;;;4.80;2.43;;;8.00;34.40;;;;;;4992796;28;20179;-52
2023/04/04 06:36:59;;;;;;;7.80;3.47;;;8.10;34.50;;;;;;4992641;28;20199;-51
2023/04/04 06:39:26;;;;;;;5.80;3.90;;;8.10;34.50;;;;;;4992617;28;20199;-51
2023/04/04 06:41:51;;;;;;;5.22;4.35;;;8.20;34.10;;;;;;4992647;28;20178;-51
2023/04/04 06:44:17;;;;;;;6.17;3.00;;;8.20;33.80;;;;;;4992783;28;20539;-51
2023/04/04 06:46:43;;;;;;;4.73;3.10;;;8.30;34.10;;;;;;4992732;28;20176;-51
2023/04/04 06:49:09;;;;;;;4.07;2.50;;;8.40;34.00;;;;;;4975063;28;20201;-51
2023/04/04 06:51:35;;;;;;;8.30;3.47;;;8.50;33.70;;;;;;4992186;28;20177;-51
2023/04/04 06:54:01;;;;;;;5.18;2.72;;;8.60;33.70;;;;;;4992380;28;20260;-51
2023/04/04 06:56:27;;;;;;;5.32;3.10;;;8.60;33.00;;;;;;4992806;28;20187;-52
2023/04/04 06:58:53;;;;;;;9.87;3.17;;;8.60;33.10;;;;;;4992396;28;20279;-51
2023/04/04 07:01:18;;;;;;;7.60;3.00;;;8.70;33.20;;;;;;4992617;28;20402;-51
2023/04/04 07:03:44;;;;;;;3.37;2.30;;;8.80;33.30;;;;;;4992321;28;20163;-51
2023/04/04 07:06:10;;;;;;;5.22;3.83;;;8.90;33.40;;;;;;4992381;28;20174;-51
2023/04/04 07:08:36;;;;;;;4.93;2.67;;;9.00;32.50;;;;;;4992685;28;20214;-51
2023/04/04 07:11:02;;;;;;;4.70;3.10;;;9.10;32.40;;;;;;4992455;28;20171;-52
2023/04/04 07:13:28;;;;;;;6.53;3.15;;;9.20;31.50;;;;;;4992181;28;20406;-51
2023/04/04 07:15:54;;;;;;;4.17;2.47;;;9.20;31.20;;;;;;4992708;28;20193;-52
2023/04/04 07:18:20;;;;;;;4.43;2.57;;;9.30;31.80;;;;;;4992445;28;20456;-52
2023/04/04 07:20:46;;;;;;;4.90;3.67;;;9.40;31.70;;;;;;4992317;28;20191;-51
2023/04/04 07:23:12;;;;;;;6.60;2.70;;;9.50;31.40;;;;;;4992340;28;20410;-51
2023/04/04 07:25:38;;;;;;;4.83;2.70;;;9.70;31.60;;;;;;4992494;28;20182;-52
2023/04/04 07:28:04;;;;;;;5.57;2.65;;;9.80;31.20;;;;;;4992100;28;20409;-52
2023/04/04 07:30:31;;;;;;;4.07;2.70;;;9.90;31.40;;;;;;4992382;28;20321;-52
2023/04/04 07:33:01;;;;;;;11.10;3.80;;;10.00;31.20;;;;;;4992117;28;20794;-51
2023/04/04 07:35:27;;;;;;;6.57;3.60;;;10.20;29.80;;;;;;4992417;28;20228;-51
2023/04/04 07:37:53;;;;;;;5.67;3.00;;;10.30;29.50;;;;;;4992303;28;20667;-51
2023/04/04 07:40:19;;;;;;;7.40;3.47;;;10.30;29.20;;;;;;4992202;28;20406;-52
2023/04/04 07:42:46;;;;;;;5.97;2.60;;;10.30;29.20;;;;;;4991925;28;20182;-51
2023/04/04 07:45:12;;;;;;;5.13;3.53;;;10.30;29.00;;;;;;4992169;28;20555;-52
2023/04/04 07:47:43;;;;;;;5.03;3.42;;;10.40;29.00;;;;;;4992123;28;20180;-51
2023/04/04 07:50:09;;;;;;;4.47;2.63;;;10.40;28.60;;;;;;4992065;28;20194;-51
2023/04/04 07:52:36;;;;;;;6.53;3.53;;;10.40;28.50;;;;;;4991851;28;20182;-52
2023/04/04 07:55:02;;;;;;;4.38;2.42;;;10.50;28.10;;;;;;4992109;28;20172;-51
2023/04/04 07:57:28;;;;;;;3.35;2.42;;;10.60;28.40;;;;;;4991959;28;20205;-51
2023/04/04 07:59:54;;;;;;;3.75;2.00;;;10.80;28.80;;;;;;4992221;28;20218;-52
2023/04/04 08:02:20;;;;;;;9.33;2.43;;;11.00;28.20;;;;;;4992207;28;20214;-52
2023/04/04 08:04:45;;;;;;;3.50;2.90;;;11.10;27.00;;;;;;4995451;28;20253;-51
2023/04/04 08:07:11;;;;;;;6.97;2.30;;;11.20;26.60;;;;;;4995313;28;20417;-52
2023/04/04 08:09:37;;;;;;;3.13;2.10;;;11.30;26.90;;;;;;4995544;28;20286;-52
2023/04/04 08:12:05;;;;;;;6.83;2.90;;;11.40;26.20;;;;;;4995069;28;20241;-52
2023/04/04 08:14:31;;;;;;;3.60;2.50;;;11.50;25.80;;;;;;4995324;28;20179;-52
2023/04/04 08:16:57;;;;;;;3.60;1.55;;;11.50;26.20;;;;;;4995408;28;20241;-52
2023/04/04 08:19:23;;;;;;;3.73;2.20;;;11.60;26.30;;;;;;4995195;28;20211;-51
2023/04/04 08:21:49;;;;;;;5.77;1.97;;;11.70;25.70;;;;;;4994850;28;20179;-51
2023/04/04 08:24:14;;;;;;;6.90;2.33;;;11.90;25.60;;;;;;4995220;28;20174;-52
2023/04/04 08:26:41;;;;;;;4.17;1.83;;;12.00;25.00;;;;;;4995125;28;20175;-52
2023/04/04 08:29:06;;;;;;;3.60;2.40;;;12.10;25.60;;;;;;4994860;28;20218;-52
2023/04/04 08:31:33;;;;;;;3.07;1.60;;;12.20;26.00;;;;;;4995032;28;20183;-52
2023/04/04 08:34:00;;;;;;;5.35;1.70;;;12.40;23.10;;;;;;4994784;28;20246;-52
2023/04/04 08:36:26;;;;;;;3.42;1.88;;;12.50;24.20;;;;;;4994728;28;20187;-52
2023/04/04 08:38:52;;;;;;;4.63;1.88;;;12.60;24.70;;;;;;4994601;28;20191;-52
2023/04/04 08:41:19;;;;;;;2.63;1.30;;;12.70;24.70;;;;;;4994862;28;20258;-52
2023/04/04 08:43:53;;;;;;;3.17;1.85;;;12.90;24.80;;;;;;4994638;28;20402;-52
2023/04/04 08:46:22;;;;;;;3.88;2.17;;;12.90;23.30;;;;;;4994733;28;20191;-52
2023/04/04 08:48:50;;;;;;;5.10;1.75;;;12.90;23.60;;;;;;4994697;28;20251;-52
2023/04/04 08:51:18;;;;;;;3.78;1.67;;;12.90;22.60;;;;;;4994692;28;20171;-52
2023/04/04 08:53:44;;;;;;;3.25;1.70;;;13.00;22.10;;;;;;4994288;28;20171;-52
2023/04/04 08:56:10;;;;;;;5.38;2.47;;;13.00;20.80;;;;;;4994595;28;20579;-52
2023/04/04 08:58:39;;;;;;;5.18;2.17;;;13.10;21.40;;;;;;4994580;28;20211;-52
2023/04/04 09:01:06;;;;;;;3.70;2.80;;;13.20;22.50;;;;;;4994397;28;20172;-52
2023/04/04 09:03:33;;;;;;;3.55;1.88;;;13.40;23.00;;;;;;4994176;28;20258;-52
2023/04/04 09:06:01;;;;;;;2.50;1.95;;;13.50;22.00;;;;;;4994465;28;20206;-53
2023/04/04 09:08:28;;;;;;;4.30;1.80;;;13.50;21.20;;;;;;4994360;28;20195;-52
2023/04/04 09:10:54;;;;;;;3.13;1.55;;;13.50;21.30;;;;;;4994435;28;20262;-52
2023/04/04 09:13:20;;;;;;;3.40;1.85;;;13.60;21.60;;;;;;4993714;28;20179;-52
2023/04/04 09:15:53;;;;;;;3.47;1.80;;;13.70;20.30;;;;;;4994159;28;20178;-52
2023/04/04 09:18:18;;;;;;;2.45;1.60;;;13.70;18.70;;;;;;4993998;28;20446;-53
2023/04/04 09:20:45;;;;;;;3.30;1.93;;;13.70;20.10;;;;;;4994166;28;20180;-52
2023/04/04 09:23:19;;;;;;;2.10;1.65;;;13.80;20.00;;;;;;4993821;28;20175;-53
2023/04/04 09:25:53;;;;;;;5.30;1.80;;;14.00;21.30;;;;;;4993882;28;20540;-53
2023/04/04 09:28:20;;;;;;;3.33;1.80;;;14.20;21.00;;;;;;4993757;28;20618;-53
2023/04/04 09:30:50;;;;;;;2.90;1.90;;;14.10;19.60;;;;;;4994045;28;20190;-53
2023/04/04 09:33:17;;;;;;;3.05;1.52;;;14.10;20.20;;;;;;4993607;28;20635;-52
2023/04/04 09:35:53;;;;;;;3.55;1.70;;;14.00;19.50;;;;;;4993831;28;20183;-52
2023/04/04 09:38:27;;;;;;;2.92;1.35;;;14.00;20.00;;;;;;4993566;28;20206;-53
2023/04/04 09:40:54;;;;;;;2.58;2.30;;;13.80;19.20;;;;;;4993726;28;20764;-53
2023/04/04 09:43:23;;;;;;;2.50;1.50;;;13.80;20.40;;;;;;4993489;28;20258;-52
2023/04/04 09:45:49;;;;;;;2.00;1.52;;;13.70;19.70;;;;;;4993852;28;20198;-53
2023/04/04 09:48:35;;;;;;;5.00;2.15;;;13.70;20.00;;;;;;4993589;28;20195;-52
2023/04/04 09:51:06;;;;;;;2.35;2.10;;;13.70;20.50;;;;;;4993388;28;20186;-52
2023/04/04 09:53:40;;;;;;;2.95;1.40;;;13.80;20.10;;;;;;4993429;28;20183;-52
2023/04/04 09:56:07;;;;;;;2.47;1.90;;;14.00;19.40;;;;;;4993964;28;20170;-53
2023/04/04 09:58:36;;;;;;;2.30;1.60;;;14.20;20.80;;;;;;4993319;28;20284;-53
2023/04/04 10:01:07;;;;;;;3.17;2.15;;;14.30;20.20;;;;;;4993518;28;20258;-53
2023/04/04 10:03:35;;;;;;;2.60;1.40;;;14.60;21.00;;;;;;4993036;28;20513;-53
2023/04/04 10:06:05;;;;;;;4.03;1.70;;;14.70;19.90;;;;;;4993261;28;20179;-52
2023/04/04 10:08:31;;;;;;;2.10;1.90;;;14.60;18.90;;;;;;4976156;28;20245;-51
2023/04/04 10:10:59;;;;;;;3.47;1.98;;;14.60;19.20;;;;;;4993219;28;20186;-53
2023/04/04 10:13:27;;;;;;;4.05;1.73;;;14.60;19.40;;;;;;4993254;28;20186;-53
2023/04/04 10:15:57;;;;;;;2.55;2.10;;;14.50;19.60;;;;;;4992987;28;20651;-52
2023/04/04 10:18:25;;;;;;;2.08;1.20;;;14.70;20.30;;;;;;4993199;28;20207;-52
2023/04/04 10:20:53;;;;;;;3.70;1.73;;;14.80;19.40;;;;;;4993319;28;20176;-52
2023/04/04 10:23:20;;;;;;;2.53;1.70;;;15.00;19.00;;;;;;4993009;28;20181;-53
2023/04/04 10:25:46;;;;;;;4.65;1.90;;;15.00;19.00;;;;;;4992417;28;20183;-53
2023/04/04 10:28:12;;;;;;;3.33;1.83;;;15.00;17.50;;;;;;4992729;28;20199;-53
2023/04/04 10:30:46;;;;;;;3.65;1.80;;;15.00;18.20;;;;;;4992901;28;20255;-52
2023/04/04 10:33:51;;;;;;;3.95;1.48;;;15.10;18.40;;;;;;4992910;28;20274;-52
2023/04/04 10:36:26;;;;;;;2.85;1.45;;;15.20;19.40;;;;;;4990321;28;20183;-53
2023/04/04 10:39:03;;;;;;;4.22;1.95;;;15.30;18.40;;;;;;4992599;28;20686;-53
2023/04/04 10:41:31;;;;;;;2.35;1.50;;;15.30;17.50;;;;;;5039302;23;20225;-49
2023/04/04 10:44:03;;;;;;;8.93;1.23;;;15.30;18.30;;;;;;5018120;28;20185;-49
2023/04/04 10:46:30;;;;;;;1.67;1.05;;;15.30;18.30;;;;;;5012632;28;20162;-49
2023/04/04 10:48:59;;;;;;;2.65;1.25;;;15.30;18.30;;;;;;5012280;28;20197;-49
2023/04/04 10:51:25;;;;;;;3.08;1.67;;;15.40;18.60;;;;;;5012343;28;20228;-49
2023/04/04 10:53:52;;;;;;;1.50;1.02;;;15.50;17.40;;;;;;5012036;28;20174;-49
2023/04/04 10:56:18;;;;;;;3.75;2.35;;;15.60;18.10;;;;;;5012464;28;20179;-49
2023/04/04 10:58:44;;;;;;;2.38;1.50;;;15.70;17.80;;;;;;5012027;28;20598;-49
2023/04/04 11:01:15;;;;;;;4.37;1.67;;;15.70;17.60;;;;;;5012386;28;20191;-49
2023/04/04 11:04:18;;;;;;;3.15;1.60;;;15.70;17.80;;;;;;5012110;28;20182;-49
2023/04/04 11:07:09;;;;;;;4.00;1.88;;;15.80;18.00;;;;;;5012098;28;20170;-48
2023/04/04 11:09:48;;;;;;;2.60;1.45;;;15.90;18.30;;;;;;5012079;28;20247;-49
2023/04/04 11:12:22;;;;;;;2.25;1.60;;;16.10;15.80;;;;;;5011957;28;20178;-49
2023/04/04 11:15:11;;;;;;;2.38;1.45;;;16.20;18.20;;;;;;5012263;28;20163;-49
2023/04/04 11:17:59;;;;;;;1.60;1.40;;;16.40;17.50;;;;;;5012312;28;20190;-49
2023/04/04 11:20:32;;;;;;;2.65;1.65;;;16.50;17.00;;;;;;5012184;28;20206;-49
2023/04/04 11:23:21;;;;;;;2.95;1.17;;;16.40;17.10;;;;;;5011912;28;20534;-49
2023/04/04 11:25:54;;;;;;;4.05;1.33;;;16.20;16.10;;;;;;5011975;28;20179;-49
2023/04/04 11:28:35;;;;;;;2.53;1.30;;;16.10;17.50;;;;;;5011948;28;20586;-49
2023/04/04 11:31:16;;;;;;;4.18;1.50;;;16.10;17.00;;;;;;5011835;28;20290;-49
2023/04/04 11:34:11;;;;;;;5.95;1.67;;;16.20;17.10;;;;;;5011479;28;20228;-49
2023/04/04 11:36:36;;;;;;;2.65;1.63;;;16.10;16.00;;;;;;5012676;28;20167;-49
2023/04/04 11:39:10;;;;;;;3.73;1.77;;;16.00;16.30;;;;;;5015769;28;20221;-49
2023/04/04 11:41:51;;;;;;;3.35;1.80;;;15.90;17.10;;;;;;5015375;28;20198;-49
2023/04/04 11:44:17;;;;;;;3.35;1.52;;;16.10;18.10;;;;;;5015350;28;20166;-49
2023/04/04 11:46:44;;;;;;;3.60;2.70;;;16.20;18.20;;;;;;5015679;28;20170;-49
2023/04/04 11:49:10;;;;;;;3.67;1.85;;;16.50;16.40;;;;;;5015462;28;20274;-50
2023/04/04 11:51:39;;;;;;;1.85;1.20;;;16.60;17.40;;;;;;5015248;28;20249;-49
2023/04/04 11:54:14;;;;;;;2.03;1.75;;;16.70;17.00;;;;;;5015207;28;20182;-50
2023/04/04 11:56:43;;;;;;;4.03;1.95;;;16.80;17.40;;;;;;5014065;28;20684;-49
2023/04/04 11:59:10;;;;;;;2.75;1.85;;;17.00;17.60;;;;;;5015077;28;20542;-49
2023/04/04 12:01:37;;;;;;;1.80;1.60;;;17.10;16.70;;;;;;5015083;28;20182;-49
2023/04/04 12:04:04;;;;;;;2.67;1.63;;;17.10;16.40;;;;;;5015176;28;20174;-50
2023/04/04 12:06:34;;;;;;;3.75;1.83;;;17.00;16.50;;;;;;5015075;28;20273;-49
2023/04/04 12:09:04;;;;;;;2.88;1.42;;;17.00;17.30;;;;;;5014996;28;20178;-50
2023/04/04 12:11:33;;;;;;;1.90;1.55;;;17.10;16.00;;;;;;5014879;28;20194;-49
2023/04/04 12:13:59;;;;;;;1.92;1.65;;;17.20;15.10;;;;;;5014932;28;20282;-49
2023/04/04 12:16:27;;;;;;;2.25;1.85;;;17.20;15.50;;;;;;5015161;28;20221;-49
2023/04/04 12:18:52;;;;;;;2.63;1.40;;;17.40;17.20;;;;;;5030036;28;20699;-49
2023/04/04 12:21:19;;;;;;;3.00;1.67;;;17.50;15.60;;;;;;5014709;28;20199;-49
2023/04/04 12:23:48;;;;;;;4.75;1.73;;;17.40;15.50;;;;;;5014498;28;20417;-49
2023/04/04 12:26:15;;;;;;;2.92;2.17;;;17.20;15.80;;;;;;5014996;28;20218;-49
2023/04/04 12:28:44;;;;;;;4.95;2.20;;;16.90;15.20;;;;;;5014868;28;20183;-49
2023/04/04 12:31:11;;;;;;;3.65;2.13;;;16.80;16.10;;;;;;5014814;28;20202;-49
2023/04/04 12:33:40;;;;;;;3.03;2.20;;;16.80;16.10;;;;;;5014354;28;20629;-50
2023/04/04 12:36:06;;;;;;;3.13;1.80;;;17.10;16.80;;;;;;5014503;28;20213;-50
2023/04/04 12:38:33;;;;;;;2.35;1.70;;;17.30;16.70;;;;;;5014597;28;20214;-50
2023/04/04 12:40:59;;;;;;;2.92;1.90;;;17.30;15.70;;;;;;5014246;28;20211;-49
2023/04/04 12:43:30;;;;;;;4.30;1.65;;;17.40;15.90;;;;;;5014209;28;20221;-50
2023/04/04 12:45:57;;;;;;;2.20;1.52;;;17.60;15.80;;;;;;5014405;28;20256;-49
2023/04/04 12:48:27;;;;;;;2.10;1.70;;;17.70;17.10;;;;;;5013713;28;20700;-50
2023/04/04 12:50:57;;;;;;;1.67;1.30;;;18.10;16.00;;;;;;5014183;28;20566;-49
2023/04/04 12:53:25;;;;;;;1.90;1.30;;;18.20;15.80;;;;;;5014251;28;20179;-49
2023/04/04 12:55:52;;;;;;;4.15;1.60;;;18.20;15.20;;;;;;5013907;28;20187;-49